sensor_id;sensor_type;location;lat;lon;timestamp;pressure;altitude;pressure_sealevel;temperature;humidity
21781;BME280;52576;53.614;9.894;2024-03-23T00:53:22;100562.28;;;6.11;93.83
21781;BME280;52576;53.614;9.894;2024-03-23T00:55:24;100559.75;;;6.09;93.93
21781;BME280;52576;53.614;9.894;2024-03-23T00:57:25;100553.78;;;6.07;93.97
21781;BME280;52576;53.614;9.894;2024-03-23T00:59:26;100551.25;;;6.06;94.03
21781;BME280;52576;53.614;9.894;2024-03-23T01:01:29;100556.53;;;6.04;94.03
21781;BME280;52576;53.614;9.894;2024-03-23T01:03:30;100548.81;;;6.03;94.10
21781;BME280;52576;53.614;9.894;2024-03-23T01:05:32;100535.03;;;6.01;94.08
21781;BME280;52576;53.614;9.894;2024-03-23T01:07:33;100533.38;;;6.00;94.40
21781;BME280;52576;53.614;9.894;2024-03-23T01:09:37;100540.41;;;5.98;94.30
21781;BME280;52576;53.614;9.894;2024-03-23T01:11:39;100533.56;;;5.97;94.52
21781;BME280;52576;53.614;9.894;2024-03-23T01:13:41;100535.38;;;5.95;94.58
21781;BME280;52576;53.614;9.894;2024-03-23T01:15:48;100538.91;;;5.94;94.51
21781;BME280;52576;53.614;9.894;2024-03-23T01:17:50;100531.25;;;5.91;94.62
21781;BME280;52576;53.614;9.894;2024-03-23T01:19:51;100530.41;;;5.90;94.86
21781;BME280;52576;53.614;9.894;2024-03-23T01:21:53;100514.88;;;5.89;94.90
21781;BME280;52576;53.614;9.894;2024-03-23T01:23:54;100518.38;;;5.88;95.02
21781;BME280;52576;53.614;9.894;2024-03-23T01:25:58;100517.53;;;5.87;95.07
21781;BME280;52576;53.614;9.894;2024-03-23T01:27:59;100516.69;;;5.87;95.11
21781;BME280;52576;53.614;9.894;2024-03-23T01:30:01;100515.94;;;5.85;95.19
21781;BME280;52576;53.614;9.894;2024-03-23T01:32:02;100518.53;;;5.85;95.22
21781;BME280;52576;53.614;9.894;2024-03-23T01:34:04;100512.56;;;5.83;95.38
21781;BME280;52576;53.614;9.894;2024-03-23T01:36:05;100508.28;;;5.82;95.43
21781;BME280;52576;53.614;9.894;2024-03-23T01:38:07;100505.75;;;5.80;95.56
21781;BME280;52576;53.614;9.894;2024-03-23T01:40:09;100499.72;;;5.79;95.60
21781;BME280;52576;53.614;9.894;2024-03-23T01:42:15;100510.19;;;5.78;95.63
21781;BME280;52576;53.614;9.894;2024-03-23T01:44:16;100510.25;;;5.76;95.67
21781;BME280;52576;53.614;9.894;2024-03-23T01:46:18;100510.25;;;5.76;95.68
21781;BME280;52576;53.614;9.894;2024-03-23T01:48:20;100489.63;;;5.73;95.78
21781;BME280;52576;53.614;9.894;2024-03-23T01:50:22;100481.06;;;5.71;95.86
21781;BME280;52576;53.614;9.894;2024-03-23T01:52:24;100486.28;;;5.71;96.11
21781;BME280;52576;53.614;9.894;2024-03-23T01:54:29;100484.59;;;5.70;96.15
21781;BME280;52576;53.614;9.894;2024-03-23T01:56:32;100476.88;;;5.69;95.99
21781;BME280;52576;53.614;9.894;2024-03-23T01:58:37;100474.34;;;5.67;96.07
21781;BME280;52576;53.614;9.894;2024-03-23T02:00:38;100477.03;;;5.66;96.08
21781;BME280;52576;53.614;9.894;2024-03-23T02:02:43;100479.69;;;5.64;96.29
21781;BME280;52576;53.614;9.894;2024-03-23T02:04:45;100478.03;;;5.63;96.30
21781;BME280;52576;53.614;9.894;2024-03-23T02:06:47;100476.34;;;5.62;96.38
21781;BME280;52576;53.614;9.894;2024-03-23T02:08:49;100466.94;;;5.60;96.20
21781;BME280;52576;53.614;9.894;2024-03-23T02:10:51;100466.16;;;5.58;96.44
21781;BME280;52576;53.614;9.894;2024-03-23T02:12:52;100468.84;;;5.56;96.46
21781;BME280;52576;53.614;9.894;2024-03-23T02:14:56;100459.38;;;5.55;96.55
21781;BME280;52576;53.614;9.894;2024-03-23T02:16:57;100454.31;;;5.52;96.59
21781;BME280;52576;53.614;9.894;2024-03-23T02:18:59;100461.34;;;5.50;96.68
21781;BME280;52576;53.614;9.894;2024-03-23T02:21:00;100451.09;;;5.47;96.72
21781;BME280;52576;53.614;9.894;2024-03-23T02:23:04;100448.63;;;5.45;97.01
21781;BME280;52576;53.614;9.894;2024-03-23T02:25:07;100437.38;;;5.45;96.97
21781;BME280;52576;53.614;9.894;2024-03-23T02:27:09;100433.16;;;5.42;97.05
21781;BME280;52576;53.614;9.894;2024-03-23T02:29:11;100429.72;;;5.42;97.06
21781;BME280;52576;53.614;9.894;2024-03-23T02:31:13;100434.16;;;5.40;97.20
21781;BME280;52576;53.614;9.894;2024-03-23T02:33:14;100427.28;;;5.39;97.33
21781;BME280;52576;53.614;9.894;2024-03-23T02:35:16;100428.19;;;5.38;97.32
21781;BME280;52576;53.614;9.894;2024-03-23T02:37:17;100427.44;;;5.36;97.33
21781;BME280;52576;53.614;9.894;2024-03-23T02:39:20;100429.28;;;5.34;97.41
21781;BME280;52576;53.614;9.894;2024-03-23T02:41:22;100430.19;;;5.33;97.45
21781;BME280;52576;53.614;9.894;2024-03-23T02:43:24;100432.03;;;5.31;97.53
21781;BME280;52576;53.614;9.894;2024-03-23T02:45:25;100434.63;;;5.31;97.76
21781;BME280;52576;53.614;9.894;2024-03-23T02:47:27;100421.69;;;5.29;97.70
21781;BME280;52576;53.614;9.894;2024-03-23T02:49:28;100429.56;;;5.28;97.65
21781;BME280;52576;53.614;9.894;2024-03-23T02:51:30;100428.81;;;5.26;97.87
21781;BME280;52576;53.614;9.894;2024-03-23T02:53:32;100424.53;;;5.25;97.79
21781;BME280;52576;53.614;9.894;2024-03-23T02:55:58;100422.00;;;5.23;97.89
21781;BME280;52576;53.614;9.894;2024-03-23T02:57:59;100418.56;;;5.23;97.86
21781;BME280;52576;53.614;9.894;2024-03-23T03:00:03;100419.47;;;5.22;98.08
21781;BME280;52576;53.614;9.894;2024-03-23T03:02:04;100410.94;;;5.20;98.07
21781;BME280;52576;53.614;9.894;2024-03-23T03:04:07;100409.16;;;5.20;98.25
21781;BME280;52576;53.614;9.894;2024-03-23T03:06:09;100415.31;;;5.19;98.40
21781;BME280;52576;53.614;9.894;2024-03-23T03:08:11;100404.06;;;5.19;98.45
21781;BME280;52576;53.614;9.894;2024-03-23T03:10:12;100391.91;;;5.19;98.36
21781;BME280;52576;53.614;9.894;2024-03-23T03:12:15;100399.59;;;5.21;98.51
21781;BME280;52576;53.614;9.894;2024-03-23T03:14:16;100395.34;;;5.20;98.46
21781;BME280;52576;53.614;9.894;2024-03-23T03:16:18;100387.56;;;5.20;98.51
21781;BME280;52576;53.614;9.894;2024-03-23T03:18:19;100388.47;;;5.19;98.60
21781;BME280;52576;53.614;9.894;2024-03-23T03:20:21;100392.84;;;5.18;98.58
21781;BME280;52576;53.614;9.894;2024-03-23T03:22:24;100390.31;;;5.17;98.48
21781;BME280;52576;53.614;9.894;2024-03-23T03:24:26;100385.13;;;5.17;98.62
21781;BME280;52576;53.614;9.894;2024-03-23T03:26:27;100385.13;;;5.17;98.55
21781;BME280;52576;53.614;9.894;2024-03-23T03:28:30;100385.13;;;5.17;98.67
21781;BME280;52576;53.614;9.894;2024-03-23T03:30:33;100379.94;;;5.17;98.69
21781;BME280;52576;53.614;9.894;2024-03-23T03:32:35;100372.13;;;5.17;98.83
21781;BME280;52576;53.614;9.894;2024-03-23T03:34:36;100373.81;;;5.18;98.85
21781;BME280;52576;53.614;9.894;2024-03-23T03:36:38;100367.78;;;5.17;98.85
21781;BME280;52576;53.614;9.894;2024-03-23T03:38:39;100368.63;;;5.18;98.74
21781;BME280;52576;53.614;9.894;2024-03-23T03:40:41;100366.03;;;5.18;98.77
21781;BME280;52576;53.614;9.894;2024-03-23T03:42:42;100359.13;;;5.17;98.82
21781;BME280;52576;53.614;9.894;2024-03-23T03:44:46;100356.53;;;5.17;98.62
21781;BME280;52576;53.614;9.894;2024-03-23T03:46:47;100356.53;;;5.17;98.65
21781;BME280;52576;53.614;9.894;2024-03-23T03:48:49;100360.06;;;5.16;98.64
21781;BME280;52576;53.614;9.894;2024-03-23T03:50:51;100356.63;;;5.15;98.65
21781;BME280;52576;53.614;9.894;2024-03-23T03:52:53;100350.59;;;5.15;98.62
21781;BME280;52576;53.614;9.894;2024-03-23T03:55:00;100348.91;;;5.14;98.35
21781;BME280;52576;53.614;9.894;2024-03-23T03:57:03;100338.50;;;5.14;98.59
21781;BME280;52576;53.614;9.894;2024-03-23T03:59:04;100335.16;;;5.11;98.58
21781;BME280;52576;53.614;9.894;2024-03-23T04:01:08;100338.66;;;5.10;98.74
21781;BME280;52576;53.614;9.894;2024-03-23T04:03:09;100339.50;;;5.11;98.42
21781;BME280;52576;53.614;9.894;2024-03-23T04:05:11;100333.47;;;5.10;98.67
21781;BME280;52576;53.614;9.894;2024-03-23T04:07:12;100331.78;;;5.09;98.62
21781;BME280;52576;53.614;9.894;2024-03-23T04:09:14;100327.50;;;5.08;98.64
21781;BME280;52576;53.614;9.894;2024-03-23T04:11:15;100333.63;;;5.07;98.57
21781;BME280;52576;53.614;9.894;2024-03-23T04:13:17;100330.25;;;5.05;98.39
21781;BME280;52576;53.614;9.894;2024-03-23T04:15:19;100328.59;;;5.04;98.53
21781;BME280;52576;53.614;9.894;2024-03-23T04:17:21;100329.50;;;5.03;98.60
21781;BME280;52576;53.614;9.894;2024-03-23T04:19:23;100324.31;;;5.03;98.45
21781;BME280;52576;53.614;9.894;2024-03-23T04:21:24;100327.81;;;5.02;98.45
21781;BME280;52576;53.614;9.894;2024-03-23T04:23:26;100326.13;;;5.01;98.55
21781;BME280;52576;53.614;9.894;2024-03-23T04:25:27;100323.53;;;5.01;98.56
21781;BME280;52576;53.614;9.894;2024-03-23T04:27:30;100315.81;;;5.00;98.57
21781;BME280;52576;53.614;9.894;2024-03-23T04:29:31;100311.47;;;5.00;98.49
21781;BME280;52576;53.614;9.894;2024-03-23T04:31:33;100292.53;;;4.98;98.54
21781;BME280;52576;53.614;9.894;2024-03-23T04:33:36;100302.06;;;4.98;98.54
21781;BME280;52576;53.614;9.894;2024-03-23T04:35:38;100308.19;;;4.97;98.57
21781;BME280;52576;53.614;9.894;2024-03-23T04:37:39;100324.69;;;4.96;98.49
21781;BME280;52576;53.614;9.894;2024-03-23T04:39:42;100329.94;;;4.94;98.62
21781;BME280;52576;53.614;9.894;2024-03-23T04:41:44;100335.16;;;4.94;98.73
21781;BME280;52576;53.614;9.894;2024-03-23T04:43:46;100329.22;;;4.92;98.66
21781;BME280;52576;53.614;9.894;2024-03-23T04:45:47;100332.72;;;4.91;98.82
21781;BME280;52576;53.614;9.894;2024-03-23T04:47:49;100335.41;;;4.90;98.74
21781;BME280;52576;53.614;9.894;2024-03-23T04:49:52;100343.28;;;4.88;98.75
21781;BME280;52576;53.614;9.894;2024-03-23T04:51:54;100347.63;;;4.88;98.93
21781;BME280;52576;53.614;9.894;2024-03-23T04:53:55;100341.59;;;4.87;98.79
21781;BME280;52576;53.614;9.894;2024-03-23T04:55:57;100333.81;;;4.87;98.99
21781;BME280;52576;53.614;9.894;2024-03-23T04:58:00;100331.19;;;4.87;99.07
21781;BME280;52576;53.614;9.894;2024-03-23T05:00:01;100317.47;;;4.85;98.83
21781;BME280;52576;53.614;9.894;2024-03-23T05:02:02;100310.59;;;4.84;98.93
21781;BME280;52576;53.614;9.894;2024-03-23T05:04:04;100308.06;;;4.83;98.99
21781;BME280;52576;53.614;9.894;2024-03-23T05:06:07;100302.03;;;4.82;98.96
21781;BME280;52576;53.614;9.894;2024-03-23T05:08:09;100305.53;;;4.81;99.16
21781;BME280;52576;53.614;9.894;2024-03-23T05:10:10;100307.28;;;4.81;99.05
21781;BME280;52576;53.614;9.894;2024-03-23T05:12:14;100303.84;;;4.80;99.18
21781;BME280;52576;53.614;9.894;2024-03-23T05:14:15;100303.78;;;4.82;99.39
21781;BME280;52576;53.614;9.894;2024-03-23T05:16:17;100306.31;;;4.83;99.28
21781;BME280;52576;53.614;9.894;2024-03-23T05:18:19;100301.09;;;4.83;99.23
21781;BME280;52576;53.614;9.894;2024-03-23T05:20:21;100303.72;;;4.83;99.42
21781;BME280;52576;53.614;9.894;2024-03-23T05:22:23;100298.50;;;4.83;99.22
21781;BME280;52576;53.614;9.894;2024-03-23T05:24:25;100300.19;;;4.84;99.30
21781;BME280;52576;53.614;9.894;2024-03-23T05:26:26;100301.88;;;4.85;99.41
21781;BME280;52576;53.614;9.894;2024-03-23T05:28:29;100310.50;;;4.86;99.30
21781;BME280;52576;53.614;9.894;2024-03-23T05:30:30;100306.22;;;4.85;99.28
21781;BME280;52576;53.614;9.894;2024-03-23T05:32:32;100299.28;;;4.85;99.17
21781;BME280;52576;53.614;9.894;2024-03-23T05:34:33;100301.88;;;4.85;99.26
21781;BME280;52576;53.614;9.894;2024-03-23T05:36:36;100313.94;;;4.86;99.15
21781;BME280;52576;53.614;9.894;2024-03-23T05:38:39;100299.19;;;4.87;99.10
21781;BME280;52576;53.614;9.894;2024-03-23T05:40:41;100300.03;;;4.87;99.23
21781;BME280;52576;53.614;9.894;2024-03-23T05:42:42;100289.66;;;4.87;99.14
21781;BME280;52576;53.614;9.894;2024-03-23T05:44:44;100291.34;;;4.88;99.21
21781;BME280;52576;53.614;9.894;2024-03-23T05:46:46;100291.25;;;4.90;99.03
21781;BME280;52576;53.614;9.894;2024-03-23T05:48:50;100292.03;;;4.92;98.99
21781;BME280;52576;53.614;9.894;2024-03-23T05:51:00;100281.63;;;4.92;99.02
21781;BME280;52576;53.614;9.894;2024-03-23T05:53:03;100280.72;;;4.93;98.81
21781;BME280;52576;53.614;9.894;2024-03-23T05:55:07;100276.38;;;4.93;98.97
21781;BME280;52576;53.614;9.894;2024-03-23T05:57:10;100272.94;;;4.93;98.83
21781;BME280;52576;53.614;9.894;2024-03-23T05:59:12;100274.69;;;4.92;98.83
21781;BME280;52576;53.614;9.894;2024-03-23T06:01:14;100271.16;;;4.93;98.93
21781;BME280;52576;53.614;9.894;2024-03-23T06:03:16;100274.69;;;4.92;98.79
21781;BME280;52576;53.614;9.894;2024-03-23T06:05:18;100272.81;;;4.94;98.79
21781;BME280;52576;53.614;9.894;2024-03-23T06:07:19;100277.09;;;4.95;98.79
21781;BME280;52576;53.614;9.894;2024-03-23T06:09:21;100277.09;;;4.95;98.64
21781;BME280;52576;53.614;9.894;2024-03-23T06:11:24;100266.72;;;4.95;98.81
21781;BME280;52576;53.614;9.894;2024-03-23T06:13:27;100270.06;;;4.97;98.78
21781;BME280;52576;53.614;9.894;2024-03-23T06:15:30;100277.78;;;4.99;98.59
21781;BME280;52576;53.614;9.894;2024-03-23T06:17:33;100269.00;;;5.01;98.74
21781;BME280;52576;53.614;9.894;2024-03-23T06:19:34;100276.63;;;5.04;98.79
21781;BME280;52576;53.614;9.894;2024-03-23T06:21:36;100281.66;;;5.07;98.62
21781;BME280;52576;53.614;9.894;2024-03-23T06:23:37;100277.16;;;5.11;98.42
21781;BME280;52576;53.614;9.894;2024-03-23T06:25:39;100277.84;;;5.15;98.39
21781;BME280;52576;53.614;9.894;2024-03-23T06:27:42;100277.69;;;5.18;98.28
21781;BME280;52576;53.614;9.894;2024-03-23T06:29:44;100271.56;;;5.19;98.29
21781;BME280;52576;53.614;9.894;2024-03-23T06:31:53;100269.63;;;5.22;98.02
21781;BME280;52576;53.614;9.894;2024-03-23T06:33:55;100274.75;;;5.24;98.03
21781;BME280;52576;53.614;9.894;2024-03-23T06:35:56;100271.22;;;5.25;97.90
21781;BME280;52576;53.614;9.894;2024-03-23T06:37:58;100261.75;;;5.24;97.61
21781;BME280;52576;53.614;9.894;2024-03-23T06:39:59;100266.78;;;5.27;97.67
21781;BME280;52576;53.614;9.894;2024-03-23T06:42:01;100265.88;;;5.28;97.35
21781;BME280;52576;53.614;9.894;2024-03-23T06:44:04;100270.16;;;5.29;97.30
21781;BME280;52576;53.614;9.894;2024-03-23T06:46:06;100266.63;;;5.30;97.11
21781;BME280;52576;53.614;9.894;2024-03-23T06:48:07;100259.75;;;5.29;96.96
21781;BME280;52576;53.614;9.894;2024-03-23T06:50:09;100256.25;;;5.30;96.83
21781;BME280;52576;53.614;9.894;2024-03-23T06:52:11;100258.84;;;5.30;96.79
21781;BME280;52576;53.614;9.894;2024-03-23T06:54:13;100256.25;;;5.30;96.63
21781;BME280;52576;53.614;9.894;2024-03-23T06:56:14;100258.91;;;5.28;96.64
21781;BME280;52576;53.614;9.894;2024-03-23T06:58:16;100261.59;;;5.27;96.56
21781;BME280;52576;53.614;9.894;2024-03-23T07:00:19;100259.16;;;5.24;96.49
21781;BME280;52576;53.614;9.894;2024-03-23T07:02:21;100258.41;;;5.22;96.34
21781;BME280;52576;53.614;9.894;2024-03-23T07:04:23;100267.09;;;5.21;96.42
21781;BME280;52576;53.614;9.894;2024-03-23T07:06:24;100260.25;;;5.20;96.39
21781;BME280;52576;53.614;9.894;2024-03-23T07:08:26;100259.31;;;5.21;96.51
21781;BME280;52576;53.614;9.894;2024-03-23T07:10:27;100259.16;;;5.24;96.54
21781;BME280;52576;53.614;9.894;2024-03-23T07:12:29;100261.59;;;5.27;96.34
21781;BME280;52576;53.614;9.894;2024-03-23T07:14:30;100257.91;;;5.31;96.34
21781;BME280;52576;53.614;9.894;2024-03-23T07:16:34;100259.44;;;5.35;96.12
21781;BME280;52576;53.614;9.894;2024-03-23T07:18:35;100266.16;;;5.39;96.18
21781;BME280;52576;53.614;9.894;2024-03-23T07:20:36;100265.84;;;5.45;96.03
21781;BME280;52576;53.614;9.894;2024-03-23T07:22:38;100261.97;;;5.52;96.16
21781;BME280;52576;53.614;9.894;2024-03-23T07:24:40;100260.72;;;5.59;96.02
21781;BME280;52576;53.614;9.894;2024-03-23T07:26:42;100266.50;;;5.64;95.77
21781;BME280;52576;53.614;9.894;2024-03-23T07:28:44;100261.97;;;5.68;95.68
21781;BME280;52576;53.614;9.894;2024-03-23T07:30:47;100266.19;;;5.70;95.43
21781;BME280;52576;53.614;9.894;2024-03-23T07:32:49;100262.66;;;5.71;95.07
21781;BME280;52576;53.614;9.894;2024-03-23T07:34:52;100261.72;;;5.72;94.77
21781;BME280;52576;53.614;9.894;2024-03-23T07:36:53;100262.53;;;5.73;94.55
21781;BME280;52576;53.614;9.894;2024-03-23T07:38:55;100259.09;;;5.72;94.26
21781;BME280;52576;53.614;9.894;2024-03-23T07:41:03;100259.09;;;5.72;94.16
21781;BME280;52576;53.614;9.894;2024-03-23T07:43:05;100252.97;;;5.73;93.82
21781;BME280;52576;53.614;9.894;2024-03-23T07:45:07;100255.41;;;5.76;93.65
21781;BME280;52576;53.614;9.894;2024-03-23T07:47:10;100257.84;;;5.79;93.75
21781;BME280;52576;53.614;9.894;2024-03-23T07:49:13;100259.28;;;5.85;93.67
21781;BME280;52576;53.614;9.894;2024-03-23T07:51:17;100252.94;;;5.91;93.58
21781;BME280;52576;53.614;9.894;2024-03-23T07:53:18;100252.59;;;5.97;93.46
21781;BME280;52576;53.614;9.894;2024-03-23T07:55:20;100254.75;;;6.04;93.09
21781;BME280;52576;53.614;9.894;2024-03-23T07:57:22;100255.25;;;6.11;92.86
21781;BME280;52576;53.614;9.894;2024-03-23T07:59:24;100254.91;;;6.17;92.40
21781;BME280;52576;53.614;9.894;2024-03-23T08:01:26;100258.09;;;6.22;91.97
21781;BME280;52576;53.614;9.894;2024-03-23T08:03:28;100257.72;;;6.28;91.50
21781;BME280;52576;53.614;9.894;2024-03-23T08:05:30;100246.13;;;6.34;91.31
21781;BME280;52576;53.614;9.894;2024-03-23T08:07:32;100245.78;;;6.40;90.87
21781;BME280;52576;53.614;9.894;2024-03-23T08:09:33;100244.59;;;6.45;90.67
21781;BME280;52576;53.614;9.894;2024-03-23T08:11:35;100244.22;;;6.52;90.36
21781;BME280;52576;53.614;9.894;2024-03-23T08:13:38;100242.00;;;6.60;89.45
21781;BME280;52576;53.614;9.894;2024-03-23T08:15:40;100238.13;;;6.67;89.52
21781;BME280;52576;53.614;9.894;2024-03-23T08:17:41;100235.91;;;6.75;89.27
21781;BME280;52576;53.614;9.894;2024-03-23T08:19:44;100230.13;;;6.84;89.11
21781;BME280;52576;53.614;9.894;2024-03-23T08:21:46;100226.06;;;6.94;88.94
21781;BME280;52576;53.614;9.894;2024-03-23T08:23:48;100234.97;;;7.04;88.43
21781;BME280;52576;53.614;9.894;2024-03-23T08:25:49;100233.69;;;7.11;87.85
21781;BME280;52576;53.614;9.894;2024-03-23T08:27:51;100227.34;;;7.15;87.14
21781;BME280;52576;53.614;9.894;2024-03-23T08:29:53;100231.28;;;7.23;86.88
21781;BME280;52576;53.614;9.894;2024-03-23T08:31:55;100220.25;;;7.32;85.82
21781;BME280;52576;53.614;9.894;2024-03-23T08:33:56;100218.22;;;7.37;85.72
21781;BME280;52576;53.614;9.894;2024-03-23T08:35:59;100221.19;;;7.45;85.34
21781;BME280;52576;53.614;9.894;2024-03-23T08:38:02;100215.59;;;7.51;84.99
21781;BME280;52576;53.614;9.894;2024-03-23T08:40:05;100209.97;;;7.57;84.64
21781;BME280;52576;53.614;9.894;2024-03-23T08:42:07;100207.72;;;7.65;84.42
21781;BME280;52576;53.614;9.894;2024-03-23T08:44:09;100210.69;;;7.73;83.82
21781;BME280;52576;53.614;9.894;2024-03-23T08:46:11;100213.63;;;7.81;83.12
21781;BME280;52576;53.614;9.894;2024-03-23T08:48:13;100208.00;;;7.88;81.67
21781;BME280;52576;53.614;9.894;2024-03-23T08:50:14;100208.66;;;7.91;81.43
21781;BME280;52576;53.614;9.894;2024-03-23T08:52:18;100199.78;;;7.94;81.22
21781;BME280;52576;53.614;9.894;2024-03-23T08:54:20;100199.59;;;7.97;80.66
21781;BME280;52576;53.614;9.894;2024-03-23T08:56:24;100207.22;;;8.00;79.92
21781;BME280;52576;53.614;9.894;2024-03-23T08:58:27;100204.19;;;8.06;78.61
21781;BME280;52576;53.614;9.894;2024-03-23T09:00:30;100206.84;;;8.18;77.38
21781;BME280;52576;53.614;9.894;2024-03-23T09:02:31;100203.34;;;8.32;76.98
21781;BME280;52576;53.614;9.894;2024-03-23T09:04:33;100207.78;;;8.44;76.72
21781;BME280;52576;53.614;9.894;2024-03-23T09:06:34;100210.72;;;8.53;74.75
21781;BME280;52576;53.614;9.894;2024-03-23T09:08:36;100200.06;;;8.56;73.77
21781;BME280;52576;53.614;9.894;2024-03-23T09:10:40;100202.66;;;8.56;73.59
21781;BME280;52576;53.614;9.894;2024-03-23T09:12:42;100214.25;;;8.52;72.94
21781;BME280;52576;53.614;9.894;2024-03-23T09:14:43;100204.22;;;8.45;72.26
21781;BME280;52576;53.614;9.894;2024-03-23T09:16:45;100219.44;;;8.39;71.86
21781;BME280;52576;53.614;9.894;2024-03-23T09:18:46;100207.00;;;8.30;71.03
21781;BME280;52576;53.614;9.894;2024-03-23T09:20:48;100218.69;;;8.24;71.06
21781;BME280;52576;53.614;9.894;2024-03-23T09:22:50;100205.09;;;8.19;70.99
21781;BME280;52576;53.614;9.894;2024-03-23T09:24:52;100212.06;;;8.18;71.35
21781;BME280;52576;53.614;9.894;2024-03-23T09:26:54;100210.31;;;8.19;70.99
21781;BME280;52576;53.614;9.894;2024-03-23T09:28:56;100203.94;;;8.23;71.37
21781;BME280;52576;53.614;9.894;2024-03-23T09:31:02;100210.66;;;8.27;71.34
21781;BME280;52576;53.614;9.894;2024-03-23T09:33:04;100201.47;;;8.34;71.05
21781;BME280;52576;53.614;9.894;2024-03-23T09:35:07;100192.31;;;8.41;70.73
21781;BME280;52576;53.614;9.894;2024-03-23T09:37:11;100185.63;;;8.50;69.60
21781;BME280;52576;53.614;9.894;2024-03-23T09:39:12;100185.44;;;8.53;68.58
21781;BME280;52576;53.614;9.894;2024-03-23T09:41:15;100180.94;;;8.55;67.63
21781;BME280;52576;53.614;9.894;2024-03-23T09:43:17;100191.28;;;8.57;67.10
21781;BME280;52576;53.614;9.894;2024-03-23T09:45:21;100191.06;;;8.60;65.98
21781;BME280;52576;53.614;9.894;2024-03-23T09:47:23;100186.56;;;8.62;65.51
21781;BME280;52576;53.614;9.894;2024-03-23T09:49:27;100190.84;;;8.63;63.60
21781;BME280;52576;53.614;9.894;2024-03-23T09:51:28;100186.56;;;8.62;64.67
21781;BME280;52576;53.614;9.894;2024-03-23T09:53:31;100195.16;;;8.51;65.87
21781;BME280;52576;53.614;9.894;2024-03-23T09:55:33;100206.50;;;8.37;66.83
21781;BME280;52576;53.614;9.894;2024-03-23T09:57:36;100194.75;;;8.17;67.24
21781;BME280;52576;53.614;9.894;2024-03-23T09:59:38;100185.91;;;7.93;68.00
21781;BME280;52576;53.614;9.894;2024-03-23T10:01:40;100190.56;;;7.75;69.63
21781;BME280;52576;53.614;9.894;2024-03-23T10:03:42;100183.50;;;7.63;71.00
21781;BME280;52576;53.614;9.894;2024-03-23T10:05:45;100176.81;;;7.59;72.14
21781;BME280;52576;53.614;9.894;2024-03-23T10:07:46;100178.47;;;7.60;72.92
21781;BME280;52576;53.614;9.894;2024-03-23T10:09:48;100179.97;;;7.64;73.46
21781;BME280;52576;53.614;9.894;2024-03-23T10:11:53;100175.84;;;7.74;73.91
21781;BME280;52576;53.614;9.894;2024-03-23T10:14:09;100166.25;;;7.88;74.29
21781;BME280;52576;53.614;9.894;2024-03-23T10:16:12;100159.81;;;8.06;74.38
21781;BME280;52576;53.614;9.894;2024-03-23T10:18:18;100157.69;;;8.25;73.63
21781;BME280;52576;53.614;9.894;2024-03-23T10:20:20;100149.78;;;8.39;72.34
21781;BME280;52576;53.614;9.894;2024-03-23T10:22:23;100148.22;;;8.49;71.21
21781;BME280;52576;53.614;9.894;2024-03-23T10:24:25;100143.00;;;8.62;70.11
21781;BME280;52576;53.614;9.894;2024-03-23T10:26:27;100158.66;;;8.75;68.57
21781;BME280;52576;53.614;9.894;2024-03-23T10:28:28;100158.84;;;8.84;67.40
21781;BME280;52576;53.614;9.894;2024-03-23T10:30:30;100162.72;;;8.92;66.81
21781;BME280;52576;53.614;9.894;2024-03-23T10:32:33;100155.72;;;8.92;66.23
21781;BME280;52576;53.614;9.894;2024-03-23T10:34:35;100162.41;;;8.96;66.12
21781;BME280;52576;53.614;9.894;2024-03-23T10:36:38;100153.84;;;8.94;65.35
21781;BME280;52576;53.614;9.894;2024-03-23T10:38:43;100154.88;;;8.92;65.16
21781;BME280;52576;53.614;9.894;2024-03-23T10:40:45;100147.34;;;8.87;64.73
21781;BME280;52576;53.614;9.894;2024-03-23T10:42:47;100154.47;;;8.85;65.32
21781;BME280;52576;53.614;9.894;2024-03-23T10:44:49;100151.75;;;8.87;65.15
21781;BME280;52576;53.614;9.894;2024-03-23T10:46:51;100154.78;;;8.93;65.25
21781;BME280;52576;53.614;9.894;2024-03-23T10:49:00;100142.53;;;9.06;64.76
21781;BME280;52576;53.614;9.894;2024-03-23T10:51:03;100129.50;;;9.17;63.06
21781;BME280;52576;53.614;9.894;2024-03-23T10:53:05;100132.00;;;9.32;63.00
21781;BME280;52576;53.614;9.894;2024-03-23T10:55:07;100121.88;;;9.51;61.93
21781;BME280;52576;53.614;9.894;2024-03-23T10:57:15;100101.03;;;9.73;59.87
21781;BME280;52576;53.614;9.894;2024-03-23T10:59:19;100112.03;;;9.90;58.64
21781;BME280;52576;53.614;9.894;2024-03-23T11:01:21;100114.47;;;10.04;58.16
21781;BME280;52576;53.614;9.894;2024-03-23T11:03:30;100111.16;;;10.13;57.19
21781;BME280;52576;53.614;9.894;2024-03-23T11:05:33;100130.59;;;10.22;56.20
21781;BME280;52576;53.614;9.894;2024-03-23T11:07:35;100121.78;;;10.23;56.45
21781;BME280;52576;53.614;9.894;2024-03-23T11:09:43;100119.78;;;10.26;56.94
21781;BME280;52576;53.614;9.894;2024-03-23T11:11:46;100114.09;;;10.32;57.24
21781;BME280;52576;53.614;9.894;2024-03-23T11:13:48;100100.75;;;10.46;56.18
21781;BME280;52576;53.614;9.894;2024-03-23T11:15:50;100120.53;;;10.62;56.29
21781;BME280;52576;53.614;9.894;2024-03-23T11:18:05;100120.28;;;10.76;56.76
21781;BME280;52576;53.614;9.894;2024-03-23T11:20:09;100134.13;;;10.89;54.90
21781;BME280;52576;53.614;9.894;2024-03-23T11:22:42;100115.38;;;10.94;53.82
21781;BME280;52576;53.614;9.894;2024-03-23T11:24:49;100115.16;;;10.97;53.88
21781;BME280;52576;53.614;9.894;2024-03-23T11:26:51;100116.69;;;10.99;53.34
21781;BME280;52576;53.614;9.894;2024-03-23T11:29:08;100107.41;;;10.95;52.63
21781;BME280;52576;53.614;9.894;2024-03-23T11:31:10;100106.00;;;10.91;52.71
21781;BME280;52576;53.614;9.894;2024-03-23T11:33:12;100099.34;;;10.87;53.09
21781;BME280;52576;53.614;9.894;2024-03-23T11:35:30;100094.31;;;10.84;52.82
21781;BME280;52576;53.614;9.894;2024-03-23T11:37:33;100085.50;;;10.85;50.89
21781;BME280;52576;53.614;9.894;2024-03-23T11:39:36;100097.91;;;10.83;51.99
21781;BME280;52576;53.614;9.894;2024-03-23T11:41:46;100100.41;;;10.84;52.10